Time;durP1;ratioP1;P1;durP2;ratioP2;P2;SDS_P1;SDS_P2;PMS_P1;PMS_P2;Temp;Humidity;BMP_temperature;BMP_pressure;BME280_temperature;BME280_humidity;BME280_pressure;Samples;Min_cycle;Max_cycle;Signal;HPM_P1;HPM_P2
2023/01/20 05:22:46;;;;;;;7.93;2.58;;;;;;;-2.71;100.00;99995.19;5120428;27;20367;-64
2023/01/20 05:25:12;;;;;;;5.15;3.03;;;;;;;-2.72;100.00;99993.53;5088844;28;20515;-64
2023/01/20 05:27:37;;;;;;;4.03;2.53;;;;;;;-2.70;100.00;99999.47;5088652;28;20070;-65
2023/01/20 05:30:04;;;;;;;5.32;2.40;;;;;;;-2.68;100.00;100002.81;5089098;28;20481;-64
2023/01/20 05:32:29;;;;;;;11.48;3.15;;;;;;;-2.67;100.00;100007.97;5088701;28;20044;-64
2023/01/20 05:34:55;;;;;;;5.57;3.22;;;;;;;-2.71;100.00;100006.47;5088543;28;20040;-64
2023/01/20 05:37:20;;;;;;;6.15;3.67;;;;;;;-2.81;100.00;99995.75;5088722;28;20110;-64
2023/01/20 05:39:45;;;;;;;4.05;2.75;;;;;;;-2.81;100.00;100010.56;5070483;28;20516;-64
2023/01/20 05:42:11;;;;;;;4.20;2.88;;;;;;;-2.87;100.00;100006.56;5088617;28;20093;-63
2023/01/20 05:44:36;;;;;;;2.80;2.53;;;;;;;-2.92;100.00;100011.22;5088561;28;20063;-63
2023/01/20 05:47:02;;;;;;;6.93;2.85;;;;;;;-2.92;100.00;100016.44;5088333;28;20047;-64
2023/01/20 05:49:27;;;;;;;3.67;2.85;;;;;;;-2.89;100.00;100021.44;5088377;28;20445;-64
2023/01/20 05:51:52;;;;;;;4.10;2.58;;;;;;;-2.91;100.00;100025.09;5070243;28;20240;-64
2023/01/20 05:54:18;;;;;;;5.38;2.70;;;;;;;-2.94;100.00;100022.66;5088386;28;20062;-64
2023/01/20 05:56:43;;;;;;;6.90;3.03;;;;;;;-2.92;100.00;100028.63;5088236;28;20087;-63
2023/01/20 05:59:09;;;;;;;6.60;2.58;;;;;;;-2.98;100.00;100018.59;5086634;28;20040;-64
2023/01/20 06:01:35;;;;;;;3.75;2.90;;;;;;;-2.89;100.00;100029.28;5086931;28;20041;-65
2023/01/20 06:04:00;;;;;;;3.50;2.65;;;;;;;-2.93;100.00;100029.56;5088210;28;20063;-65
2023/01/20 06:06:26;;;;;;;3.53;3.13;;;;;;;-2.93;100.00;100034.78;5088119;28;20044;-64
2023/01/20 06:08:52;;;;;;;2.88;2.25;;;;;;;-2.95;100.00;100036.63;5087827;28;20032;-65
2023/01/20 06:11:18;;;;;;;3.88;3.00;;;;;;;-2.92;100.00;100039.91;5088024;28;20520;-62
2023/01/20 06:13:45;;;;;;;4.13;2.35;;;;;;;-2.94;100.00;100031.31;5088042;28;20116;-63
2023/01/20 06:16:11;;;;;;;3.65;3.08;;;;;;;-2.93;100.00;100040.84;5089180;28;20040;-64
2023/01/20 06:18:36;;;;;;;3.33;2.92;;;;;;;-2.92;100.00;100037.28;5092774;28;20135;-64
2023/01/20 06:21:02;;;;;;;4.45;3.20;;;;;;;-2.91;100.00;100046.78;5088122;28;20109;-64
2023/01/20 06:23:27;;;;;;;3.70;2.53;;;;;;;-2.91;100.00;100051.16;5088041;28;20032;-64
2023/01/20 06:26:09;;;;;;;4.45;3.47;;;;;;;-2.90;100.00;100051.06;5087944;28;20061;-64
2023/01/20 06:28:34;;;;;;;4.28;2.85;;;;;;;-2.90;100.00;100052.84;5087500;28;20032;-63
2023/01/20 06:31:14;;;;;;;2.67;2.20;;;;;;;-2.87;100.00;100045.69;5087692;28;20553;-65
2023/01/20 06:33:41;;;;;;;4.97;2.38;;;;;;;-2.85;100.00;100053.41;5075390;28;20040;-65
2023/01/20 06:36:07;;;;;;;4.85;3.00;;;;;;;-2.84;100.00;100055.91;5074079;28;20115;-65
2023/01/20 06:38:34;;;;;;;3.20;2.45;;;;;;;-2.84;100.00;100049.84;5073602;28;20123;-65
2023/01/20 06:41:06;;;;;;;3.78;2.72;;;;;;;-2.77;100.00;100061.59;5073975;28;20087;-66
2023/01/20 06:43:38;;;;;;;4.07;2.88;;;;;;;-2.73;100.00;100063.09;5072896;28;20073;-63
2023/01/20 06:46:08;;;;;;;3.75;3.08;;;;;;;-2.74;100.00;100064.00;5074051;28;20090;-63
2023/01/20 06:48:34;;;;;;;2.38;2.10;;;;;;;-2.73;100.00;100070.91;5073512;28;20040;-62
2023/01/20 06:51:18;;;;;;;2.47;1.75;;;;;;;-2.58;100.00;100083.00;5073737;28;20072;-62
2023/01/20 06:53:44;;;;;;;5.53;2.33;;;;;;;-2.57;100.00;100081.22;5073946;28;20051;-62
2023/01/20 06:56:11;;;;;;;3.15;1.85;;;;;;;-2.59;100.00;100070.91;5073810;28;20417;-63
2023/01/20 06:58:37;;;;;;;3.53;2.53;;;;;;;-2.61;100.00;100080.59;5073499;28;20097;-63
2023/01/20 07:01:07;;;;;;;3.88;2.67;;;;;;;-2.58;100.00;100083.00;5073691;28;20814;-63
2023/01/20 07:03:33;;;;;;;4.20;2.38;;;;;;;-2.57;100.00;100086.44;5073562;28;20040;-63
2023/01/20 07:06:02;;;;;;;4.07;2.83;;;;;;;-2.65;100.00;100086.91;5072400;28;20093;-64
2023/01/20 07:08:28;;;;;;;3.70;2.35;;;;;;;-2.65;100.00;100099.97;5073369;28;20171;-63
2023/01/20 07:10:54;;;;;;;2.97;2.65;;;;;;;-2.68;100.00;100099.28;5073412;28;20127;-64
2023/01/20 07:13:19;;;;;;;3.33;2.65;;;;;;;-2.66;100.00;100098.28;5073593;28;20036;-63
2023/01/20 07:15:45;;;;;;;3.78;2.47;;;;;;;-2.67;100.00;100100.97;5073360;28;20510;-63
2023/01/20 07:18:10;;;;;;;3.65;1.75;;;;;;;-2.68;100.00;100102.75;5073192;28;20043;-63
2023/01/20 07:20:37;;;;;;;4.25;2.95;;;;;;;-2.66;100.00;100108.72;5073201;28;20119;-63
2023/01/20 07:23:04;;;;;;;2.95;2.28;;;;;;;-2.68;100.00;100109.72;5073278;28;20044;-63
2023/01/20 07:25:29;;;;;;;3.42;2.40;;;;;;;-2.67;100.00;100120.09;5073370;28;20056;-63
2023/01/20 07:27:56;;;;;;;5.38;2.90;;;;;;;-2.67;100.00;100117.47;5072911;28;20042;-63
2023/01/20 07:30:22;;;;;;;2.78;2.30;;;;;;;-2.67;100.00;100127.03;5073050;28;20033;-63
2023/01/20 07:32:48;;;;;;;5.30;3.25;;;;;;;-2.68;100.00;100126.22;5072986;28;20131;-64
2023/01/20 07:35:13;;;;;;;5.80;2.80;;;;;;;-2.69;100.00;100134.13;5072964;28;20064;-64
2023/01/20 07:37:39;;;;;;;3.17;2.85;;;;;;;-2.68;100.00;100139.25;5072736;28;20371;-64
2023/01/20 07:40:06;;;;;;;2.42;1.85;;;;;;;-2.68;100.00;100135.81;5071689;28;20047;-64
2023/01/20 07:42:31;;;;;;;3.55;2.20;;;;;;;-2.68;100.00;100138.41;5072906;28;20041;-64
2023/01/20 07:44:57;;;;;;;3.00;2.65;;;;;;;-2.67;100.00;100143.56;5072009;28;20444;-64
2023/01/20 07:47:22;;;;;;;5.72;3.40;;;;;;;-2.70;100.00;100142.88;5072413;28;20036;-64
2023/01/20 07:49:47;;;;;;;5.45;2.97;;;;;;;-2.68;100.00;100143.63;5072654;28;20092;-63
2023/01/20 07:52:13;;;;;;;3.35;3.05;;;;;;;-2.69;100.00;100144.56;5072323;28;20047;-64
2023/01/20 07:54:38;;;;;;;3.75;2.15;;;;;;;-2.64;100.00;100147.75;5071310;28;20466;-61
2023/01/20 07:57:04;;;;;;;2.45;2.25;;;;;;;-2.63;100.00;100147.66;5071264;28;20449;-61
2023/01/20 07:59:29;;;;;;;4.55;3.03;;;;;;;-2.56;100.00;100161.16;5072253;28;20042;-62
2023/01/20 08:28:05;;;;;;;3.40;2.83;;;;;;;-2.03;100.00;100197.03;5072123;28;20570;-64
2023/01/20 08:30:30;;;;;;;3.97;2.80;;;;;;;-1.96;100.00;100203.59;5072055;28;20040;-64
2023/01/20 08:32:56;;;;;;;4.65;2.63;;;;;;;-1.89;100.00;100208.41;5072237;28;20051;-64
2023/01/20 08:35:21;;;;;;;3.85;2.70;;;;;;;-1.76;100.00;100214.53;5071873;28;20044;-65
2023/01/20 08:37:46;;;;;;;3.15;2.88;;;;;;;-1.64;100.00;100213.78;5071579;28;20052;-65
2023/01/20 08:40:12;;;;;;;7.30;4.03;;;;;;;-1.49;100.00;100212.00;5071982;28;20494;-62
2023/01/20 08:42:38;;;;;;;6.18;3.35;;;;;;;-1.27;100.00;100216.66;5071885;28;20043;-65
2023/01/20 08:45:05;;;;;;;3.20;2.00;;;;;;;-1.09;100.00;100215.50;5071753;28;20052;-65
2023/01/20 08:47:34;;;;;;;2.90;2.30;;;;;;;-0.93;100.00;100215.31;5069965;28;20036;-63
2023/01/20 08:50:00;;;;;;;4.55;3.13;;;;;;;-0.72;100.00;100226.13;5071623;28;20055;-64
2023/01/20 08:52:26;;;;;;;6.97;2.60;;;;;;;-0.58;100.00;100223.47;5071581;28;20044;-63
2023/01/20 08:54:54;;;;;;;6.25;3.35;;;;;;;-0.44;100.00;100233.84;5071439;28;20039;-64
2023/01/20 08:57:19;;;;;;;4.20;2.22;;;;;;;-0.37;100.00;100235.09;5071266;28;20079;-64
2023/01/20 08:59:46;;;;;;;4.63;3.25;;;;;;;-0.23;100.00;100233.31;5071548;28;20072;-62
2023/01/20 09:02:11;;;;;;;2.75;2.30;;;;;;;0.02;100.00;100241.16;5070248;28;20040;-63
2023/01/20 09:04:37;;;;;;;4.15;3.08;;;;;;;0.09;100.00;100245.03;5070112;28;20123;-64
2023/01/20 09:07:04;;;;;;;4.30;3.28;;;;;;;0.25;100.00;100245.63;5071165;28;20040;-64
2023/01/20 09:09:29;;;;;;;4.30;2.90;;;;;;;0.38;100.00;100248.22;5070244;28;20112;-65
2023/01/20 09:11:54;;;;;;;5.10;3.30;;;;;;;0.54;100.00;100245.38;5071437;28;20186;-65
2023/01/20 09:14:21;;;;;;;5.80;2.90;;;;;;;0.72;100.00;100257.16;5071395;28;20036;-64
2023/01/20 09:16:47;;;;;;;5.63;2.83;;;;;;;1.07;99.46;100256.38;5071247;28;20508;-65
2023/01/20 09:19:13;;;;;;;7.18;3.58;;;;;;;1.36;96.61;100252.44;5071146;28;20037;-65
2023/01/20 09:21:39;;;;;;;2.38;1.92;;;;;;;1.52;95.45;100246.91;5070030;28;20474;-65
2023/01/20 09:24:05;;;;;;;4.97;3.67;;;;;;;1.83;94.28;100265.59;5071458;28;20037;-64
2023/01/20 09:26:37;;;;;;;5.25;3.10;;;;;;;2.06;93.25;100267.28;5071219;28;20041;-64
2023/01/20 09:29:07;;;;;;;4.45;2.80;;;;;;;2.23;91.75;100268.63;5071027;28;20409;-65
2023/01/20 09:31:34;;;;;;;4.60;3.08;;;;;;;2.48;90.02;100267.53;5071138;28;20044;-64
2023/01/20 09:34:00;;;;;;;5.93;2.97;;;;;;;2.64;88.67;100269.78;5071247;28;20029;-65
2023/01/20 09:36:28;;;;;;;3.78;2.83;;;;;;;2.80;86.36;100269.38;5070141;28;20040;-64
2023/01/20 09:43:52;;;;;;;6.00;3.25;;;;;;;2.87;84.38;100268.78;5070002;28;20214;-64
2023/01/20 09:45:06;;;;;;;6.47;3.10;;;;;;;3.15;85.53;100280.53;5070967;28;20047;-65
2023/01/20 09:47:42;;;;;;;6.07;3.20;;;;;;;3.45;82.81;100286.88;5070764;28;20033;-65
2023/01/20 09:53:14;;;;;;;;;;;;;;;3.32;82.09;100300.22;5071598;28;20029;-64
2023/01/20 09:55:53;;;;;;;4.78;3.00;;;;;;;3.43;80.63;100294.91;5069795;28;19965;-63
2023/01/20 09:58:24;;;;;;;7.10;3.92;;;;;;;3.63;80.57;100297.69;5071019;28;20168;-64
2023/01/20 10:01:32;;;;;;;5.78;3.60;;;;;;;3.82;79.96;100289.94;5070946;28;20029;-62
2023/01/20 10:04:16;;;;;;;5.70;3.47;;;;;;;4.36;78.49;100299.38;5069977;28;20041;-63
2023/01/20 10:06:50;;;;;;;5.20;3.15;;;;;;;4.50;76.07;100292.91;5070942;28;20041;-63
2023/01/20 10:09:50;;;;;;;4.38;3.40;;;;;;;4.97;74.22;100293.22;5074221;28;20032;-65
2023/01/20 10:12:24;;;;;;;9.10;4.25;;;;;;;4.72;73.19;100283.97;5074383;28;20041;-62
2023/01/20 10:15:03;;;;;;;5.32;3.85;;;;;;;4.79;72.97;100287.72;5073232;28;20028;-65
2023/01/20 10:17:36;;;;;;;7.60;4.10;;;;;;;4.66;73.97;100284.50;5074707;28;20071;-65
2023/01/20 10:20:13;;;;;;;4.25;3.83;;;;;;;4.67;73.55;100280.91;5074593;28;20516;-62
2023/01/20 10:22:44;;;;;;;7.47;4.38;;;;;;;4.74;73.81;100295.22;5074417;28;20119;-64
2023/01/20 10:25:56;;;;;;;5.75;4.82;;;;;;;4.98;73.55;100289.59;5074289;28;20085;-62
2023/01/20 10:28:27;;;;;;;6.88;4.43;;;;;;;5.53;72.53;100285.44;5069639;28;20102;-63
2023/01/20 10:30:54;;;;;;;6.82;4.63;;;;;;;5.95;69.85;100285.16;5074217;28;20485;-62
2023/01/20 10:33:29;;;;;;;7.18;4.85;;;;;;;6.47;68.05;100290.84;5074149;28;20085;-60
2023/01/20 10:35:58;;;;;;;6.68;4.30;;;;;;;7.24;64.38;100290.41;5074660;28;20040;-65
2023/01/20 10:38:51;;;;;;;8.07;4.47;;;;;;;7.02;62.51;100290.81;5073746;28;20056;-65
2023/01/20 10:41:25;;;;;;;8.90;4.55;;;;;;;7.74;60.63;100283.72;5073940;28;20166;-65
2023/01/20 10:43:51;;;;;;;5.93;4.38;;;;;;;8.13;59.88;100284.16;5074070;28;20037;-64
2023/01/20 10:46:35;;;;;;;7.70;4.88;;;;;;;8.27;57.52;100280.06;5073888;28;20047;-65
2023/01/20 10:49:24;;;;;;;6.97;4.63;;;;;;;8.75;57.41;100282.19;5073633;28;20040;-64
2023/01/20 10:52:08;;;;;;;6.25;4.53;;;;;;;8.72;56.25;100289.63;5073704;28;20043;-63
2023/01/20 10:54:45;;;;;;;8.05;4.78;;;;;;;8.89;56.01;100281.56;5073782;28;20485;-63
2023/01/20 10:57:14;;;;;;;6.50;4.65;;;;;;;9.09;55.86;100286.59;5073454;28;20516;-64
2023/01/20 10:59:49;;;;;;;7.80;4.97;;;;;;;8.57;55.96;100284.09;5073554;28;20071;-64
2023/01/20 11:02:26;;;;;;;5.90;4.40;;;;;;;8.17;57.38;100290.81;5073821;28;20036;-63
2023/01/20 11:04:58;;;;;;;8.98;5.18;;;;;;;8.44;56.81;100284.53;5073802;28;20044;-63
2023/01/20 11:07:25;;;;;;;5.80;3.60;;;;;;;8.28;56.87;100287.91;5073189;28;20133;-64
2023/01/20 11:09:51;;;;;;;7.45;5.00;;;;;;;8.19;56.58;100296.78;5072373;28;20044;-62
2023/01/20 11:12:20;;;;;;;6.38;4.72;;;;;;;8.16;56.07;100286.50;5072184;28;20110;-64
2023/01/20 11:14:47;;;;;;;6.70;4.32;;;;;;;8.18;56.07;100273.91;5073418;28;20033;-63
2023/01/20 11:17:19;;;;;;;8.23;5.03;;;;;;;8.78;55.51;100289.81;5071618;28;20098;-62
2023/01/20 11:19:55;;;;;;;8.45;4.85;;;;;;;8.72;55.63;100298.41;5073249;28;20035;-62
2023/01/20 11:22:30;;;;;;;7.43;4.40;;;;;;;8.97;55.35;100302.81;5073424;28;20419;-63
2023/01/20 11:24:58;;;;;;;7.60;5.22;;;;;;;8.21;56.71;100308.06;5073329;28;20115;-63
2023/01/20 11:27:41;;;;;;;6.28;5.10;;;;;;;7.66;58.54;100307.50;5072852;28;20102;-63
2023/01/20 11:30:22;;;;;;;6.35;4.03;;;;;;;6.48;61.68;100311.03;5073819;28;20093;-65
2023/01/20 11:33:07;;;;;;;9.15;5.30;;;;;;;6.84;61.93;100311.13;5073497;28;20043;-65
2023/01/20 11:35:32;;;;;;;7.38;4.85;;;;;;;6.66;63.80;100305.81;5073632;28;20570;-65
2023/01/20 11:38:19;;;;;;;7.72;4.20;;;;;;;6.53;63.95;100308.78;5073403;28;20048;-65
2023/01/20 11:40:52;;;;;;;6.27;3.63;;;;;;;6.27;64.42;100297.19;5074013;28;20083;-65
2023/01/20 11:43:34;;;;;;;6.60;4.45;;;;;;;5.69;66.79;100303.41;5076355;28;20128;-65
2023/01/20 11:46:21;;;;;;;6.35;4.68;;;;;;;5.87;66.07;100295.59;5074251;28;20040;-64
2023/01/20 11:48:47;;;;;;;6.72;4.18;;;;;;;6.67;65.21;100305.66;5074382;28;20119;-63
2023/01/20 11:51:24;;;;;;;5.75;4.32;;;;;;;6.41;65.67;100292.25;5074602;28;20112;-65
2023/01/20 11:53:50;;;;;;;8.98;5.10;;;;;;;6.07;65.13;100296.41;5073311;28;20048;-65
2023/01/20 11:56:25;;;;;;;7.03;4.10;;;;;;;5.99;65.47;100299.75;5072915;28;20047;-65
2023/01/20 11:58:54;;;;;;;6.35;4.70;;;;;;;5.62;67.50;100303.13;5073208;28;20489;-63
2023/01/20 12:01:48;;;;;;;6.80;4.07;;;;;;;5.21;69.97;100304.19;5072682;28;20040;-64
2023/01/20 12:04:28;;;;;;;6.88;4.32;;;;;;;4.90;71.60;100306.09;5073029;28;20394;-65
2023/01/20 12:07:00;;;;;;;4.78;3.70;;;;;;;5.09;71.77;100302.69;5074050;28;20397;-65
2023/01/20 12:09:32;;;;;;;6.57;3.83;;;;;;;5.34;71.00;100299.47;5072547;28;20040;-65
2023/01/20 12:12:12;;;;;;;5.72;3.65;;;;;;;5.94;68.08;100307.28;5072282;28;20507;-65
2023/01/20 12:14:54;;;;;;;6.43;4.25;;;;;;;6.47;66.74;100304.09;5073092;28;20444;-65
2023/01/20 12:17:36;;;;;;;5.38;3.58;;;;;;;6.86;66.61;100303.91;5072565;28;20044;-65
2023/01/20 12:20:08;;;;;;;6.57;4.10;;;;;;;6.90;62.54;100314.03;5072430;28;20043;-64
2023/01/20 12:22:39;;;;;;;5.32;3.47;;;;;;;6.24;64.36;100307.06;5072332;28;20084;-65
2023/01/20 12:25:14;;;;;;;5.13;3.92;;;;;;;6.18;66.23;100309.44;5072358;28;20375;-64
2023/01/20 12:27:45;;;;;;;5.78;3.50;;;;;;;6.22;65.67;100303.75;5072160;28;20032;-65
2023/01/20 12:30:35;;;;;;;6.95;4.05;;;;;;;5.76;66.27;100314.25;5072064;28;20036;-65
2023/01/20 12:33:01;;;;;;;4.82;3.35;;;;;;;5.87;65.65;100306.16;5072787;28;20486;-65
2023/01/20 12:35:29;;;;;;;9.32;3.80;;;;;;;6.21;64.47;100307.38;5072663;28;20036;-64
2023/01/20 12:37:59;;;;;;;7.47;4.57;;;;;;;6.33;63.84;100307.19;5070667;28;20090;-64
2023/01/20 12:40:39;;;;;;;6.65;3.97;;;;;;;6.46;64.89;100305.91;5072011;28;20410;-65
2023/01/20 12:43:13;;;;;;;6.40;3.78;;;;;;;6.36;63.30;100310.38;5072294;28;20033;-65
2023/01/20 12:45:39;;;;;;;6.47;3.45;;;;;;;5.80;65.24;100313.78;5072327;28;20522;-65
2023/01/20 12:48:34;;;;;;;5.00;3.53;;;;;;;5.84;66.35;100311.72;5071913;28;20040;-64
2023/01/20 12:51:14;;;;;;;4.35;3.08;;;;;;;5.79;67.61;100314.78;5072152;28;20064;-65
2023/01/20 12:53:51;;;;;;;4.43;2.95;;;;;;;5.56;65.73;100318.69;5071769;28;20405;-65
2023/01/20 12:56:34;;;;;;;12.23;3.53;;;;;;;5.20;66.99;100317.53;5071919;28;20513;-64
2023/01/20 12:59:08;;;;;;;6.55;3.38;;;;;;;5.08;66.59;100327.38;5071500;28;20036;-64
2023/01/20 13:01:46;;;;;;;6.13;3.03;;;;;;;4.86;68.90;100321.38;5071825;28;20410;-64
2023/01/20 13:04:56;;;;;;;5.20;2.90;;;;;;;4.63;69.53;100315.47;5071670;28;20496;-64
2023/01/20 13:07:40;;;;;;;5.18;3.20;;;;;;;4.71;70.13;100313.97;5054967;28;20040;-64
2023/01/20 13:10:43;;;;;;;2.97;2.45;;;;;;;4.43;69.97;100312.88;5070189;28;20464;-64
2023/01/20 13:13:23;;;;;;;4.22;2.65;;;;;;;4.41;68.83;100317.44;5071863;28;20642;-65
2023/01/20 13:16:19;;;;;;;4.50;3.17;;;;;;;4.12;70.87;100325.22;5071962;28;20036;-64
2023/01/20 13:19:17;;;;;;;4.15;3.08;;;;;;;4.02;71.53;100317.25;5070405;28;20040;-64
2023/01/20 13:21:43;;;;;;;3.97;2.67;;;;;;;3.97;71.46;100322.88;5071410;28;20124;-65
2023/01/20 13:24:17;;;;;;;5.07;2.45;;;;;;;4.01;70.90;100316.41;5071448;28;20123;-63
2023/01/20 13:26:48;;;;;;;5.63;3.00;;;;;;;4.02;71.13;100318.06;5072003;28;20036;-65
2023/01/20 13:29:33;;;;;;;3.05;2.30;;;;;;;3.97;71.50;100327.31;5071456;28;20041;-65
2023/01/20 13:31:58;;;;;;;6.70;2.75;;;;;;;3.99;70.97;100315.72;5071742;28;20032;-65
2023/01/20 13:34:24;;;;;;;2.90;2.33;;;;;;;4.03;68.70;100313.63;5054098;28;20040;-64
2023/01/20 13:37:02;;;;;;;3.33;2.30;;;;;;;3.91;68.88;100315.53;5070441;28;20451;-64
2023/01/20 13:39:39;;;;;;;2.40;1.80;;;;;;;4.00;69.43;100308.63;5071886;28;20509;-65
2023/01/20 13:42:45;;;;;;;3.95;2.53;;;;;;;3.93;69.23;100313.59;5072483;28;20028;-65
2023/01/20 13:45:10;;;;;;;3.60;2.42;;;;;;;4.03;70.35;100311.84;5076109;28;20040;-65
2023/01/20 13:48:04;;;;;;;2.58;1.98;;;;;;;4.14;69.91;100310.94;5076183;28;20035;-65
2023/01/20 13:50:34;;;;;;;2.83;1.85;;;;;;;4.27;70.32;100314.19;5076501;28;20121;-65
2023/01/20 13:52:59;;;;;;;2.75;2.13;;;;;;;4.25;70.75;100312.66;5075652;28;20386;-65
2023/01/20 13:55:39;;;;;;;3.67;2.50;;;;;;;4.36;71.06;100310.75;5075581;28;20032;-65
2023/01/20 13:58:20;;;;;;;3.20;1.98;;;;;;;4.34;69.55;100303.94;5074756;28;20052;-65
2023/01/20 14:01:12;;;;;;;4.40;2.40;;;;;;;4.32;67.46;100316.44;5075376;28;20036;-64
2023/01/20 14:03:39;;;;;;;3.35;2.35;;;;;;;4.24;66.56;100321.53;5075862;28;20446;-65
2023/01/20 14:06:19;;;;;;;3.13;2.67;;;;;;;4.05;68.25;100319.63;5075597;28;20124;-65
2023/01/20 14:08:49;;;;;;;3.38;2.47;;;;;;;4.09;67.73;100321.84;5075111;28;20040;-64
2023/01/20 14:11:17;;;;;;;5.15;3.42;;;;;;;4.00;67.61;100320.00;5074744;28;20040;-63
2023/01/20 14:13:51;;;;;;;3.28;2.38;;;;;;;3.96;68.04;100326.50;5074912;28;20475;-63
2023/01/20 14:16:28;;;;;;;2.22;1.65;;;;;;;3.92;68.44;100329.53;5074884;28;20111;-63
2023/01/20 14:18:57;;;;;;;2.58;2.13;;;;;;;3.86;67.50;100324.78;5074668;28;20055;-63
2023/01/20 14:21:28;;;;;;;6.05;2.42;;;;;;;3.91;67.19;100320.78;5074431;28;20037;-64
2023/01/20 14:23:54;;;;;;;2.85;2.25;;;;;;;3.90;67.85;100319.09;5074512;28;20493;-63
2023/01/20 14:26:25;;;;;;;2.60;2.08;;;;;;;3.94;67.70;100327.59;5073224;28;20071;-62
2023/01/20 14:28:54;;;;;;;5.38;2.95;;;;;;;3.88;67.05;100323.66;5074218;28;20500;-62
2023/01/20 14:31:35;;;;;;;3.60;1.80;;;;;;;3.90;67.81;100327.00;5073079;28;20036;-63
2023/01/20 14:34:29;;;;;;;2.55;2.28;;;;;;;3.84;66.59;100329.31;5074530;28;20059;-62
2023/01/20 14:36:57;;;;;;;3.03;2.53;;;;;;;3.83;67.25;100336.38;5069091;28;20060;-63
2023/01/20 14:39:26;;;;;;;3.10;2.33;;;;;;;3.88;68.09;100343.91;5072798;28;20064;-63
2023/01/20 14:41:57;;;;;;;2.75;2.22;;;;;;;3.86;68.32;100333.50;5072936;28;20032;-63
2023/01/20 14:44:25;;;;;;;2.75;2.53;;;;;;;3.75;68.05;100344.09;5074079;28;20032;-63
2023/01/20 14:46:53;;;;;;;2.75;2.00;;;;;;;3.69;69.06;100341.97;5074022;28;20056;-63
2023/01/20 14:49:21;;;;;;;2.20;1.90;;;;;;;3.72;68.21;100344.38;5073819;28;20038;-62
2023/01/20 14:51:49;;;;;;;3.38;2.40;;;;;;;3.64;68.82;100346.78;5072892;28;20048;-63
2023/01/20 14:54:27;;;;;;;3.38;2.22;;;;;;;3.70;68.19;100354.19;5072141;28;20047;-62
2023/01/20 14:56:52;;;;;;;;;;;;;;;3.64;70.91;100357.31;5074371;28;20432;-61
2023/01/20 14:59:19;;;;;;;4.47;2.17;;;;;;;3.56;70.72;100354.47;5073709;28;20007;-62
2023/01/20 15:01:50;;;;;;;3.70;3.00;;;;;;;3.52;70.47;100357.38;5073964;28;20101;-62
2023/01/20 15:04:16;;;;;;;3.53;2.08;;;;;;;3.43;70.57;100359.91;5073787;28;20343;-63
2023/01/20 15:06:41;;;;;;;3.30;2.28;;;;;;;3.43;72.10;100366.00;5073631;28;20049;-62
2023/01/20 15:09:24;;;;;;;5.75;2.20;;;;;;;3.42;72.76;100358.25;5073372;28;20111;-62
2023/01/20 15:11:50;;;;;;;3.63;2.33;;;;;;;3.43;72.55;100360.75;5073795;28;20066;-62
2023/01/20 15:14:16;;;;;;;5.50;2.67;;;;;;;3.35;70.72;100362.34;5055547;28;20598;-63
2023/01/20 15:16:48;;;;;;;3.45;2.55;;;;;;;3.33;71.68;100362.47;5073606;28;20079;-63
2023/01/20 15:19:13;;;;;;;4.97;3.15;;;;;;;3.33;71.20;100357.19;5073259;28;20048;-63
2023/01/20 15:21:50;;;;;;;4.07;2.55;;;;;;;3.32;71.20;100362.56;5071923;28;20444;-62
2023/01/20 15:24:27;;;;;;;3.17;2.08;;;;;;;3.32;72.17;100357.31;5073573;28;20036;-62
2023/01/20 15:26:54;;;;;;;2.73;2.50;;;;;;;3.34;71.27;100358.88;5073342;28;20044;-62
2023/01/20 15:29:24;;;;;;;3.65;2.50;;;;;;;3.26;71.19;100361.28;5073087;28;20655;-63
2023/01/20 15:31:50;;;;;;;3.40;2.40;;;;;;;3.27;70.40;100362.97;5073330;28;20119;-61
2023/01/20 15:34:16;;;;;;;3.95;2.45;;;;;;;3.21;71.18;100360.81;5073097;28;20063;-61
2023/01/20 15:36:42;;;;;;;5.15;2.17;;;;;;;3.19;71.27;100363.56;5073064;28;20127;-62
2023/01/20 15:39:15;;;;;;;5.35;2.45;;;;;;;3.10;72.53;100363.47;5072778;28;20033;-60
2023/01/20 15:41:41;;;;;;;3.80;2.08;;;;;;;3.12;73.27;100361.53;5073083;28;20444;-62
2023/01/20 15:44:06;;;;;;;4.47;2.08;;;;;;;3.08;71.44;100362.75;5072962;28;20048;-65
2023/01/20 15:46:32;;;;;;;3.17;2.85;;;;;;;3.04;72.01;100359.53;5072941;28;20068;-62
2023/01/20 15:48:58;;;;;;;3.65;2.38;;;;;;;2.95;73.20;100369.00;5071234;28;20397;-62
2023/01/20 15:51:23;;;;;;;3.53;2.13;;;;;;;2.98;72.74;100370.53;5072654;28;20052;-61
2023/01/20 15:53:49;;;;;;;3.72;2.35;;;;;;;2.89;73.88;100371.28;5072779;28;20052;-62
2023/01/20 15:56:17;;;;;;;2.78;2.20;;;;;;;2.86;73.79;100374.97;5072560;28;20040;-61
2023/01/20 15:58:42;;;;;;;3.25;2.33;;;;;;;2.81;73.71;100378.94;5072449;28;20037;-62
2023/01/20 16:01:12;;;;;;;3.90;2.38;;;;;;;2.78;74.12;100379.16;5072497;28;20032;-62
2023/01/20 16:03:37;;;;;;;4.03;2.90;;;;;;;2.75;75.01;100379.41;5072645;28;20185;-60
2023/01/20 16:06:10;;;;;;;3.92;2.25;;;;;;;2.61;75.79;100383.13;5071658;28;20060;-62
2023/01/20 16:08:36;;;;;;;4.07;2.00;;;;;;;2.63;77.04;100386.47;5070788;28;20131;-61
2023/01/20 16:11:02;;;;;;;4.18;2.60;;;;;;;2.56;77.02;100382.63;5072293;28;20486;-59
2023/01/20 16:13:27;;;;;;;3.67;2.50;;;;;;;2.54;76.74;100387.16;5071073;28;20040;-63
2023/01/20 16:15:54;;;;;;;2.30;2.10;;;;;;;2.53;77.93;100390.75;5072171;28;20044;-63
2023/01/20 16:18:19;;;;;;;3.72;2.40;;;;;;;2.49;77.45;100395.44;5071947;28;20520;-60
2023/01/20 16:20:48;;;;;;;3.53;2.58;;;;;;;2.41;77.41;100390.75;5071963;28;20063;-60
2023/01/20 16:23:14;;;;;;;3.55;2.55;;;;;;;2.34;77.53;100396.56;5072251;28;20155;-62
2023/01/20 16:25:40;;;;;;;1.95;1.67;;;;;;;2.30;77.76;100396.00;5071957;28;20060;-61
2023/01/20 16:28:18;;;;;;;3.38;1.95;;;;;;;2.27;78.16;100393.56;5071905;28;20075;-57
2023/01/20 16:30:44;;;;;;;2.70;2.20;;;;;;;2.20;77.42;100391.53;5071956;28;20063;-61
2023/01/20 16:33:21;;;;;;;3.10;2.25;;;;;;;2.19;78.15;100398.59;5072052;28;20088;-63
2023/01/20 16:35:49;;;;;;;3.17;2.00;;;;;;;2.15;78.42;100392.75;5071881;28;20036;-63
2023/01/20 16:38:16;;;;;;;4.18;2.70;;;;;;;2.12;80.76;100402.63;5071691;28;20405;-63
2023/01/20 16:41:04;;;;;;;3.80;2.47;;;;;;;2.11;78.56;100406.22;5071960;28;20040;-63
2023/01/20 16:43:29;;;;;;;4.38;2.83;;;;;;;2.06;79.40;100395.19;5072077;28;20515;-63
2023/01/20 16:45:55;;;;;;;3.03;2.50;;;;;;;2.06;79.17;100416.22;5071738;28;20048;-63
2023/01/20 16:48:22;;;;;;;4.68;2.10;;;;;;;2.12;79.76;100418.41;5070238;28;20040;-63
2023/01/20 16:50:48;;;;;;;2.65;2.03;;;;;;;2.01;79.11;100411.31;5071566;28;20041;-63
2023/01/20 16:53:15;;;;;;;3.15;2.22;;;;;;;2.00;79.78;100408.81;5071754;28;20043;-62
2023/01/20 16:55:45;;;;;;;2.88;2.17;;;;;;;1.95;80.50;100417.00;5071547;28;20077;-62
2023/01/20 16:58:11;;;;;;;4.05;2.05;;;;;;;1.91;80.96;100410.34;5071348;28;20028;-63
2023/01/20 17:00:37;;;;;;;2.58;1.85;;;;;;;1.83;82.14;100418.78;5071809;28;20040;-63
2023/01/20 17:03:03;;;;;;;2.42;2.20;;;;;;;1.87;81.82;100417.59;5071633;28;20047;-63
2023/01/20 17:05:28;;;;;;;2.60;2.13;;;;;;;1.84;81.87;100417.81;5071442;28;20052;-63
2023/01/20 17:07:56;;;;;;;3.75;2.50;;;;;;;1.86;81.52;100422.97;5070077;28;20127;-63
2023/01/20 17:10:22;;;;;;;2.97;2.08;;;;;;;1.84;82.93;100428.34;5072022;28;20444;-63
2023/01/20 17:12:50;;;;;;;4.85;2.42;;;;;;;1.74;82.46;100426.50;5071621;28;20409;-63
2023/01/20 17:15:15;;;;;;;3.10;2.53;;;;;;;1.75;82.30;100423.75;5071753;28;20028;-61
2023/01/20 17:17:41;;;;;;;2.42;1.88;;;;;;;1.72;80.88;100425.78;5070931;28;20040;-62
2023/01/20 17:20:09;;;;;;;2.17;1.67;;;;;;;1.66;82.21;100423.59;5071606;28;20051;-61
2023/01/20 17:22:36;;;;;;;2.97;1.55;;;;;;;1.69;79.46;100426.81;5071939;28;20051;-63
2023/01/20 17:25:03;;;;;;;1.40;1.30;;;;;;;1.69;79.97;100424.19;5071381;28;20395;-62
2023/01/20 17:27:29;;;;;;;3.38;2.20;;;;;;;1.68;81.00;100424.31;5070920;28;20036;-62
2023/01/20 17:29:54;;;;;;;2.10;1.67;;;;;;;1.70;79.23;100433.78;5071780;28;20047;-61
2023/01/20 17:32:19;;;;;;;3.25;2.35;;;;;;;1.78;78.26;100433.22;5071273;28;20041;-61
2023/01/20 17:34:46;;;;;;;2.65;2.00;;;;;;;1.74;79.52;100432.56;5071319;28;20408;-62
2023/01/20 17:37:12;;;;;;;2.97;1.83;;;;;;;1.76;78.05;100432.47;5070910;28;20130;-61
2023/01/20 17:39:37;;;;;;;2.75;2.25;;;;;;;1.80;77.74;100437.38;5071319;28;20084;-64
2023/01/20 17:42:03;;;;;;;3.47;2.30;;;;;;;1.86;77.22;100433.47;5071431;28;20596;-64